createdAt,value
2023-03-06T00:00:15.799Z,944.26
2023-03-06T00:01:15.782Z,944.25
2023-03-06T00:02:15.768Z,944.21
2023-03-06T00:03:15.739Z,944.18
2023-03-06T00:04:15.730Z,944.2
2023-03-06T00:05:15.733Z,944.16
2023-03-06T00:06:15.715Z,944.19
2023-03-06T00:07:15.657Z,944.18
2023-03-06T00:08:15.638Z,944.14
2023-03-06T00:09:15.617Z,944.15
2023-03-06T00:10:15.605Z,944.14
2023-03-06T00:11:15.591Z,944.11
2023-03-06T00:12:15.555Z,944.09
2023-03-06T00:13:15.539Z,944.13
2023-03-06T00:14:15.513Z,944.12
2023-03-06T00:15:15.498Z,944.13
2023-03-06T00:16:15.507Z,944.12
2023-03-06T00:17:15.455Z,944.09
2023-03-06T00:18:15.442Z,944.1
2023-03-06T00:19:15.412Z,944.07
2023-03-06T00:20:15.393Z,944.07
2023-03-06T00:21:15.405Z,944.1
2023-03-06T00:22:15.354Z,944.12
2023-03-06T00:23:15.332Z,944.1
2023-03-06T00:24:15.310Z,944.07
2023-03-06T00:25:15.297Z,944.13
2023-03-06T00:26:15.269Z,944.07
2023-03-06T00:27:15.255Z,944.1
2023-03-06T00:28:15.238Z,944.11
2023-03-06T00:29:15.210Z,944.1
2023-03-06T00:30:15.194Z,944.09
2023-03-06T00:31:15.186Z,944.09
2023-03-06T00:32:15.156Z,944.04
2023-03-06T00:33:15.158Z,944.11
2023-03-06T00:34:15.108Z,944.06
2023-03-06T00:35:15.083Z,944.02
2023-03-06T00:36:15.060Z,944.01
2023-03-06T00:37:15.069Z,943.99
2023-03-06T00:38:15.033Z,943.99
2023-03-06T00:39:15.008Z,943.98
2023-03-06T00:40:15.000Z,943.97
2023-03-06T00:41:14.965Z,943.95
2023-03-06T00:42:14.940Z,943.94
2023-03-06T00:43:14.917Z,943.98
2023-03-06T00:44:14.895Z,943.9
2023-03-06T00:45:14.891Z,943.91
2023-03-06T00:46:14.856Z,943.92
2023-03-06T00:47:14.835Z,943.87
2023-03-06T00:48:14.817Z,943.89
2023-03-06T00:49:14.801Z,943.89
2023-03-06T00:50:14.787Z,943.81
2023-03-06T00:51:14.754Z,943.77
2023-03-06T00:52:14.736Z,943.75
2023-03-06T00:53:14.744Z,943.72
2023-03-06T00:54:14.686Z,943.75
2023-03-06T00:55:14.669Z,943.73
2023-03-06T00:56:14.648Z,943.77
2023-03-06T00:57:14.631Z,943.71
2023-03-06T00:58:14.606Z,943.72
2023-03-06T00:59:14.589Z,943.68
2023-03-06T01:00:14.565Z,943.69
2023-03-06T01:01:14.569Z,943.67
2023-03-06T01:02:14.564Z,943.66
2023-03-06T01:03:14.504Z,943.69
2023-03-06T01:04:14.484Z,943.66
2023-03-06T01:05:14.464Z,943.68
2023-03-06T01:06:14.439Z,943.67
2023-03-06T01:07:14.422Z,943.66
2023-03-06T01:08:14.397Z,943.66
2023-03-06T01:09:14.402Z,943.66
2023-03-06T01:10:14.367Z,943.66
2023-03-06T01:11:14.335Z,943.61
2023-03-06T01:12:14.316Z,943.63
2023-03-06T01:13:14.294Z,943.59
2023-03-06T01:14:14.315Z,943.61
2023-03-06T01:15:14.249Z,943.64
2023-03-06T01:16:14.311Z,943.59
2023-03-06T01:17:14.236Z,943.57
2023-03-06T01:18:14.193Z,943.53
2023-03-06T01:19:14.175Z,943.55
2023-03-06T01:20:14.153Z,943.55
2023-03-06T01:21:14.128Z,943.51
2023-03-06T01:22:14.108Z,943.46
2023-03-06T01:23:14.088Z,943.45
2023-03-06T01:24:14.067Z,943.42
2023-03-06T01:25:14.067Z,943.41
2023-03-06T01:26:14.024Z,943.43
2023-03-06T01:27:14.005Z,943.41
2023-03-06T01:28:13.984Z,943.36
2023-03-06T01:29:13.960Z,943.35
2023-03-06T01:30:13.943Z,943.37
2023-03-06T01:31:13.917Z,943.35
2023-03-06T01:32:13.975Z,943.31
2023-03-06T01:33:13.874Z,943.31
2023-03-06T01:34:13.856Z,943.27
2023-03-06T01:35:13.837Z,943.33
2023-03-06T01:36:13.815Z,943.31
2023-03-06T01:37:13.794Z,943.29
2023-03-06T01:38:13.785Z,943.28
2023-03-06T01:39:13.751Z,943.29
2023-03-06T01:40:13.733Z,943.3
2023-03-06T01:41:13.738Z,943.29
2023-03-06T01:42:13.699Z,943.32
2023-03-06T01:43:13.677Z,943.25
2023-03-06T01:44:13.767Z,943.29
2023-03-06T01:45:13.635Z,943.28
2023-03-06T01:46:13.619Z,943.29
2023-03-06T01:47:13.594Z,943.25
2023-03-06T01:48:13.569Z,943.23
2023-03-06T01:49:13.547Z,943.22
2023-03-06T01:50:13.528Z,943.22
2023-03-06T01:51:13.526Z,943.12
2023-03-06T01:52:13.487Z,943.2
2023-03-06T01:53:13.467Z,943.15
2023-03-06T01:54:13.446Z,943.16
2023-03-06T01:55:13.422Z,943.15
2023-03-06T01:56:13.408Z,943.14
2023-03-06T01:57:13.414Z,943.15
2023-03-06T01:58:13.362Z,943.11
2023-03-06T01:59:13.345Z,943.11
2023-03-06T02:00:13.318Z,943.07
2023-03-06T02:01:13.409Z,943.14
2023-03-06T02:02:13.312Z,943.1
2023-03-06T02:03:13.259Z,943.09
2023-03-06T02:04:13.241Z,943.06
2023-03-06T02:05:13.217Z,943.06
2023-03-06T02:06:13.195Z,943.09
2023-03-06T02:07:13.176Z,943.03
2023-03-06T02:08:13.159Z,943.05
2023-03-06T02:09:13.138Z,943.03
2023-03-06T02:10:13.112Z,943
2023-03-06T02:11:13.177Z,942.97
2023-03-06T02:12:13.088Z,942.99
2023-03-06T02:13:13.080Z,942.93
2023-03-06T02:14:13.034Z,942.93
2023-03-06T02:15:13.015Z,942.95
2023-03-06T02:16:12.998Z,942.93
2023-03-06T02:17:12.982Z,942.96
2023-03-06T02:18:12.950Z,942.92
2023-03-06T02:19:12.932Z,942.9
2023-03-06T02:20:12.910Z,942.89
2023-03-06T02:21:12.894Z,942.86
2023-03-06T02:22:12.871Z,942.86
2023-03-06T02:23:12.853Z,942.88
2023-03-06T02:24:12.842Z,942.87
2023-03-06T02:25:12.813Z,942.84
2023-03-06T02:26:12.788Z,942.83
2023-03-06T02:27:12.773Z,942.8
2023-03-06T02:28:12.758Z,942.79
2023-03-06T02:29:12.754Z,942.81
2023-03-06T02:30:12.708Z,942.73
2023-03-06T02:31:12.715Z,942.74
2023-03-06T02:32:12.730Z,942.75
2023-03-06T02:33:12.648Z,942.7
2023-03-06T02:34:12.628Z,942.72
2023-03-06T02:35:12.610Z,942.69
2023-03-06T02:36:12.589Z,942.64
2023-03-06T02:37:12.578Z,942.62
2023-03-06T02:38:12.547Z,942.58
2023-03-06T02:39:12.527Z,942.61
2023-03-06T02:40:12.509Z,942.61
2023-03-06T02:41:12.488Z,942.63
2023-03-06T02:42:12.466Z,942.6
2023-03-06T02:43:12.448Z,942.59
2023-03-06T02:44:12.427Z,942.59
2023-03-06T02:45:12.431Z,942.57
2023-03-06T02:46:12.487Z,942.58
2023-03-06T02:47:12.388Z,942.55
2023-03-06T02:48:12.342Z,942.56
2023-03-06T02:49:12.326Z,942.53
2023-03-06T02:50:12.302Z,942.52
2023-03-06T02:51:12.294Z,942.5
2023-03-06T02:52:12.269Z,942.55
2023-03-06T02:53:12.244Z,942.53
2023-03-06T02:54:12.223Z,942.5
2023-03-06T02:55:12.203Z,942.52
2023-03-06T02:56:12.186Z,942.53
2023-03-06T02:57:12.166Z,942.54
2023-03-06T02:58:12.148Z,942.51
2023-03-06T02:59:12.127Z,942.47
2023-03-06T03:00:12.101Z,942.45
2023-03-06T03:01:12.141Z,942.45
2023-03-06T03:02:12.071Z,942.41
2023-03-06T03:03:12.038Z,942.4
2023-03-06T03:04:12.051Z,942.43
2023-03-06T03:05:12.009Z,942.36
2023-03-06T03:06:11.982Z,942.38
2023-03-06T03:07:11.958Z,942.4
2023-03-06T03:08:11.939Z,942.39
2023-03-06T03:09:11.916Z,942.36
2023-03-06T03:10:11.901Z,942.37
2023-03-06T03:11:11.881Z,942.39
2023-03-06T03:12:11.864Z,942.37
2023-03-06T03:13:11.837Z,942.39
2023-03-06T03:14:11.819Z,942.35
2023-03-06T03:15:11.800Z,942.37
2023-03-06T03:16:11.877Z,942.35
2023-03-06T03:17:11.783Z,942.29
2023-03-06T03:18:11.744Z,942.32
2023-03-06T03:19:11.717Z,942.27
2023-03-06T03:20:11.702Z,942.3
2023-03-06T03:21:11.680Z,942.32
2023-03-06T03:22:11.659Z,942.29
2023-03-06T03:23:11.643Z,942.26
2023-03-06T03:24:11.619Z,942.28
2023-03-06T03:25:11.612Z,942.28
2023-03-06T03:26:11.593Z,942.23
2023-03-06T03:27:11.558Z,942.24
2023-03-06T03:28:11.543Z,942.26
2023-03-06T03:29:11.527Z,942.23
2023-03-06T03:30:11.503Z,942.21
2023-03-06T03:31:11.585Z,942.2
2023-03-06T03:32:11.479Z,942.19
2023-03-06T03:49:44.567Z,942.05
2023-03-06T03:50:44.473Z,942.07
2023-03-06T03:51:44.460Z,942.06
2023-03-06T03:52:44.431Z,942.07
2023-03-06T03:53:44.423Z,942.09
2023-03-06T03:54:44.382Z,942.05
2023-03-06T03:55:44.363Z,942.07
2023-03-06T03:56:44.339Z,942.05
2023-03-06T03:57:44.327Z,942.03
2023-03-06T03:58:44.299Z,942.02
2023-03-06T03:59:44.279Z,942
2023-03-06T04:00:44.254Z,942.03
2023-03-06T04:01:44.261Z,942.01
2023-03-06T04:02:44.214Z,942.01
2023-03-06T04:03:44.191Z,941.99
2023-03-06T04:04:44.208Z,942.02
2023-03-06T04:05:44.175Z,942.01
2023-03-06T04:06:44.130Z,941.99
2023-03-06T04:07:44.126Z,941.91
2023-03-06T04:08:44.089Z,941.92
2023-03-06T04:09:44.066Z,941.85
2023-03-06T04:10:44.046Z,941.83
2023-03-06T04:11:44.028Z,941.85
2023-03-06T04:12:44.007Z,941.87
2023-03-06T04:13:43.989Z,941.85
2023-03-06T04:14:43.962Z,941.85
2023-03-06T04:15:43.952Z,941.83
2023-03-06T04:16:43.922Z,941.78
2023-03-06T04:17:43.907Z,941.75
2023-03-06T04:18:43.883Z,941.72
2023-03-06T04:19:43.868Z,941.79
2023-03-06T04:20:43.845Z,941.71
2023-03-06T04:21:43.846Z,941.72
2023-03-06T04:22:43.809Z,941.7
2023-03-06T04:23:43.780Z,941.71
2023-03-06T04:24:43.767Z,941.72
2023-03-06T04:25:43.741Z,941.74
2023-03-06T04:26:43.723Z,941.69
2023-03-06T04:27:43.703Z,941.67
2023-03-06T04:28:43.709Z,941.71
2023-03-06T04:29:43.700Z,941.7
2023-03-06T04:30:43.646Z,941.67
2023-03-06T04:31:43.667Z,941.67
2023-03-06T04:32:43.667Z,941.64
2023-03-06T04:33:43.581Z,941.65
2023-03-06T04:34:43.560Z,941.68
2023-03-06T04:35:43.574Z,941.67
2023-03-06T04:36:43.525Z,941.65
2023-03-06T04:37:43.528Z,941.6
2023-03-06T04:38:43.509Z,941.58
2023-03-06T04:39:43.463Z,941.59
2023-03-06T04:40:44.922Z,941.57
2023-03-06T04:41:43.439Z,941.53
2023-03-06T04:42:43.846Z,941.59
2023-03-06T04:43:43.807Z,941.56
2023-03-06T04:44:43.848Z,941.53
2023-03-06T04:45:43.839Z,941.51
2023-03-06T04:46:43.747Z,941.46
2023-03-06T04:47:43.684Z,941.47
2023-03-06T04:48:43.668Z,941.39
2023-03-06T04:49:43.651Z,941.37
2023-03-06T04:50:43.629Z,941.42
2023-03-06T04:51:43.602Z,941.38
2023-03-06T04:52:43.585Z,941.43
2023-03-06T04:53:43.588Z,941.39
2023-03-06T04:54:43.544Z,941.33
2023-03-06T04:55:43.523Z,941.32
2023-03-06T04:56:43.504Z,941.31
2023-03-06T04:57:43.486Z,941.32
2023-03-06T04:58:43.467Z,941.34
2023-03-06T04:59:43.445Z,941.31
2023-03-06T05:00:43.463Z,941.34
2023-03-06T05:01:43.406Z,941.31
2023-03-06T05:02:43.382Z,941.37
2023-03-06T05:03:43.385Z,941.38
2023-03-06T05:04:43.343Z,941.35
2023-03-06T05:05:43.331Z,941.35
2023-03-06T05:06:43.307Z,941.33
2023-03-06T05:07:43.281Z,941.34
2023-03-06T05:08:43.268Z,941.33
2023-03-06T05:09:43.264Z,941.32
2023-03-06T05:10:43.222Z,941.27
2023-03-06T05:11:43.207Z,941.29
2023-03-06T05:12:43.179Z,941.29
2023-03-06T05:13:43.157Z,941.3
2023-03-06T05:14:43.141Z,941.26
2023-03-06T05:15:43.115Z,941.27
2023-03-06T05:16:43.192Z,941.25
2023-03-06T05:17:43.080Z,941.19
2023-03-06T05:18:43.059Z,941.2
2023-03-06T05:19:43.036Z,941.14
2023-03-06T05:20:43.043Z,941.13
2023-03-06T05:21:42.998Z,941.15
2023-03-06T05:22:42.988Z,941.21
2023-03-06T05:23:42.956Z,941.24
2023-03-06T05:24:42.939Z,941.25
2023-03-06T05:25:42.954Z,941.26
2023-03-06T05:26:42.898Z,941.23
2023-03-06T05:27:42.875Z,941.23
2023-03-06T05:28:42.868Z,941.22
2023-03-06T05:29:42.834Z,941.18
2023-03-06T05:30:42.828Z,941.17
2023-03-06T05:31:42.860Z,941.15
2023-03-06T05:32:42.937Z,941.17
2023-03-06T05:33:42.759Z,941.11
2023-03-06T05:34:42.736Z,941.18
2023-03-06T05:35:42.734Z,941.19
2023-03-06T05:36:42.699Z,941.11
2023-03-06T05:37:42.678Z,941.16
2023-03-06T05:38:42.656Z,941.07
2023-03-06T05:39:42.647Z,941.08
2023-03-06T05:40:42.622Z,941.1
2023-03-06T05:41:42.625Z,941.11
2023-03-06T05:42:42.579Z,941.09
2023-03-06T05:43:42.567Z,941.08
2023-03-06T05:44:42.540Z,941.06
2023-03-06T05:45:42.541Z,941.03
2023-03-06T05:46:42.500Z,941.02
2023-03-06T05:47:42.486Z,941.02
2023-03-06T05:48:42.462Z,941.05
2023-03-06T05:49:42.445Z,941.06
2023-03-06T05:50:42.475Z,941.02
2023-03-06T05:51:42.407Z,941.07
2023-03-06T05:52:42.394Z,941.05
2023-03-06T05:53:42.366Z,941.01
2023-03-06T05:54:42.342Z,941
2023-03-06T05:55:42.324Z,941.01
2023-03-06T05:56:42.927Z,941.01
2023-03-06T05:57:42.313Z,941
2023-03-06T05:58:42.263Z,941.04
2023-03-06T05:59:43.251Z,941
2023-03-06T06:00:42.223Z,941.03
2023-03-06T06:01:42.208Z,941.05
2023-03-06T06:02:42.362Z,941.03
2023-03-06T06:03:42.222Z,941.03
2023-03-06T06:04:42.143Z,941.02
2023-03-06T06:05:42.126Z,941.01
2023-03-06T06:06:42.105Z,940.98
2023-03-06T06:07:42.099Z,941.01
2023-03-06T06:08:42.070Z,941.05
2023-03-06T06:09:42.050Z,941.06
2023-03-06T06:10:42.040Z,941.05
2023-03-06T06:11:42.022Z,941.04
2023-03-06T06:12:41.984Z,941.03
2023-03-06T06:13:42.018Z,940.99
2023-03-06T06:14:41.946Z,941.06
2023-03-06T06:15:41.976Z,941.02
2023-03-06T06:16:41.908Z,941.03
2023-03-06T06:17:41.889Z,940.97
2023-03-06T06:18:41.868Z,941.01
2023-03-06T06:19:41.849Z,941.03
2023-03-06T06:20:41.829Z,941.06
2023-03-06T06:21:41.809Z,941.05
2023-03-06T06:22:41.817Z,940.98
2023-03-06T06:23:41.769Z,941.02
2023-03-06T06:24:41.751Z,941.04
2023-03-06T06:25:41.729Z,941.04
2023-03-06T06:26:41.711Z,941.03
2023-03-06T06:27:41.691Z,941.01
2023-03-06T06:28:41.679Z,941.07
2023-03-06T06:29:41.673Z,941.05
2023-03-06T06:30:41.650Z,941.03
2023-03-06T06:31:41.622Z,941
2023-03-06T06:32:41.689Z,941.01
2023-03-06T06:33:41.599Z,941.03
2023-03-06T06:34:41.555Z,941.01
2023-03-06T06:35:41.570Z,940.99
2023-03-06T06:36:41.519Z,941.01
2023-03-06T06:37:41.516Z,941.02
2023-03-06T06:38:41.478Z,940.99
2023-03-06T06:39:41.455Z,940.95
2023-03-06T06:40:41.437Z,940.94
2023-03-06T06:42:33.139Z,940.94
2023-03-06T06:43:26.272Z,940.96
2023-03-06T06:44:26.250Z,940.91
2023-03-06T06:45:26.254Z,940.94
2023-03-06T06:47:09.509Z,940.93
2023-03-06T06:47:32.004Z,940.96
2023-03-06T06:48:31.900Z,940.94
2023-03-06T06:49:31.883Z,940.92
2023-03-06T06:50:31.870Z,940.96
2023-03-06T06:51:31.840Z,940.95
2023-03-06T06:52:31.819Z,940.97
2023-03-06T06:53:31.804Z,940.91
2023-03-06T06:54:31.781Z,940.93
2023-03-06T06:55:31.761Z,940.91
2023-03-06T06:56:31.743Z,940.92
2023-03-06T06:57:31.725Z,940.91
2023-03-06T06:58:31.705Z,940.9
2023-03-06T06:59:31.711Z,940.9
2023-03-06T07:00:31.686Z,940.91
2023-03-06T07:01:31.648Z,940.9
2023-03-06T07:02:31.633Z,940.88
2023-03-06T07:03:31.616Z,940.89
2023-03-06T07:04:31.586Z,940.92
2023-03-06T07:05:31.568Z,940.92
2023-03-06T07:06:31.548Z,940.88
2023-03-06T07:07:31.528Z,940.86
2023-03-06T07:08:31.508Z,940.84
2023-03-06T07:09:31.495Z,940.86
2023-03-06T07:10:31.469Z,940.9
2023-03-06T07:11:31.454Z,940.89
2023-03-06T07:12:31.431Z,940.84
2023-03-06T07:13:31.417Z,940.89
2023-03-06T07:14:31.390Z,940.86
2023-03-06T07:15:31.371Z,940.88
2023-03-06T07:16:31.378Z,940.92
2023-03-06T07:17:31.332Z,940.89
2023-03-06T07:18:32.333Z,940.84
2023-03-06T07:19:32.310Z,940.84
2023-03-06T07:20:32.295Z,940.82
2023-03-06T07:21:32.273Z,940.86
2023-03-06T07:22:41.528Z,940.83
2023-03-06T07:23:32.232Z,940.82
2023-03-06T07:24:32.216Z,940.86
2023-03-06T07:25:32.197Z,940.89
2023-03-06T07:26:34.555Z,940.87
2023-03-06T07:27:32.213Z,940.89
2023-03-06T07:28:40.078Z,940.88
2023-03-06T07:29:32.119Z,940.93
2023-03-06T07:30:32.098Z,940.89
2023-03-06T07:31:32.127Z,940.9
2023-03-06T07:32:32.123Z,940.91
2023-03-06T07:33:32.047Z,940.94
2023-03-06T07:34:32.024Z,940.95
2023-03-06T07:35:32.075Z,940.98
2023-03-06T07:36:31.981Z,940.92
2023-03-06T07:37:31.967Z,940.97
2023-03-06T07:38:31.945Z,940.98
2023-03-06T07:39:31.941Z,940.95
2023-03-06T07:40:31.914Z,940.97
2023-03-06T07:41:31.887Z,940.98
2023-03-06T07:42:31.867Z,940.98
2023-03-06T07:43:31.845Z,940.97
2023-03-06T07:44:31.837Z,940.95
2023-03-06T07:45:31.808Z,940.99
2023-03-06T07:46:31.833Z,941
2023-03-06T07:47:31.776Z,940.98
2023-03-06T07:48:31.796Z,941
2023-03-06T07:49:31.737Z,941.02
2023-03-06T07:50:31.711Z,941.01
2023-03-06T07:51:31.691Z,941.03
2023-03-06T07:52:31.674Z,941.04
2023-03-06T07:53:31.653Z,941.06
2023-03-06T07:54:31.640Z,941.03
2023-03-06T07:55:31.616Z,941.05
2023-03-06T07:56:31.601Z,941.01
2023-03-06T07:57:31.578Z,941.03
2023-03-06T07:58:31.605Z,941.05
2023-03-06T07:59:31.541Z,941
2023-03-06T08:00:31.521Z,940.99
2023-03-06T08:01:31.511Z,941.07
2023-03-06T08:02:31.530Z,941.06
2023-03-06T08:03:31.534Z,941.05
2023-03-06T08:04:31.474Z,941.09
2023-03-06T08:05:31.427Z,941.06
2023-03-06T08:06:31.409Z,941.08
2023-03-06T08:07:31.385Z,941.07
2023-03-06T08:08:31.371Z,941.08
2023-03-06T08:09:31.346Z,941.04
2023-03-06T08:10:31.348Z,941.08
2023-03-06T08:11:31.320Z,941.02
2023-03-06T08:12:31.285Z,941.04
2023-03-06T08:13:31.267Z,941.03
2023-03-06T08:14:31.252Z,941.05
2023-03-06T08:15:31.234Z,941.06
2023-03-06T08:16:31.282Z,941.01
2023-03-06T08:17:31.192Z,941
2023-03-06T08:18:31.167Z,940.99
2023-03-06T08:19:31.152Z,940.95
2023-03-06T08:20:31.154Z,940.99
2023-03-06T08:21:31.124Z,940.99
2023-03-06T08:22:31.092Z,940.97
2023-03-06T08:23:31.075Z,940.96
2023-03-06T08:24:31.051Z,940.91
2023-03-06T08:25:31.036Z,940.95
2023-03-06T08:26:31.021Z,940.92
2023-03-06T08:27:30.997Z,940.89
2023-03-06T08:28:30.988Z,940.85
2023-03-06T08:29:32.284Z,940.89
2023-03-06T08:30:30.940Z,940.88
2023-03-06T08:31:30.983Z,940.87
2023-03-06T08:32:30.990Z,940.87
2023-03-06T08:33:30.883Z,940.87
2023-03-06T08:34:30.862Z,940.87
2023-03-06T08:35:30.852Z,940.89
2023-03-06T08:36:30.851Z,940.88
2023-03-06T08:37:30.886Z,940.89
2023-03-06T08:38:30.787Z,940.91
2023-03-06T08:39:30.770Z,940.9
2023-03-06T08:40:30.750Z,940.87
2023-03-06T08:41:30.762Z,940.87
2023-03-06T08:42:30.711Z,940.9
2023-03-06T08:43:30.695Z,940.85
2023-03-06T08:44:30.695Z,940.88
2023-03-06T08:45:30.668Z,940.89
2023-03-06T08:46:30.639Z,940.89
2023-03-06T08:47:30.687Z,940.87
2023-03-06T08:48:30.600Z,940.84
2023-03-06T08:49:30.587Z,940.88
2023-03-06T08:50:30.561Z,940.83
2023-03-06T08:51:30.545Z,940.86
2023-03-06T08:52:30.557Z,940.87
2023-03-06T08:53:41.972Z,940.89
2023-03-06T08:54:30.488Z,940.89
2023-03-06T08:55:30.471Z,940.93
2023-03-06T08:56:30.458Z,940.9
2023-03-06T08:57:30.435Z,940.95
2023-03-06T08:58:30.413Z,940.96
2023-03-06T08:59:30.408Z,940.92
2023-03-06T09:00:30.418Z,940.91
2023-03-06T09:01:30.436Z,940.92
2023-03-06T09:02:30.423Z,940.91
2023-03-06T09:03:30.322Z,940.91
2023-03-06T09:04:30.306Z,941
2023-03-06T09:05:30.284Z,940.97
2023-03-06T09:06:30.266Z,940.94
2023-03-06T09:07:30.356Z,941
2023-03-06T09:08:30.255Z,940.99
2023-03-06T09:09:30.212Z,940.97
2023-03-06T09:10:30.241Z,940.99
2023-03-06T09:11:30.176Z,940.96
2023-03-06T09:12:32.593Z,940.97
2023-03-06T09:13:30.144Z,941
2023-03-06T09:14:30.121Z,940.98
2023-03-06T09:15:30.103Z,940.89
2023-03-06T09:16:30.092Z,940.97
2023-03-06T09:17:30.111Z,940.91
2023-03-06T09:18:30.051Z,940.95
2023-03-06T09:19:30.030Z,940.94
2023-03-06T09:20:30.017Z,940.95
2023-03-06T09:21:30.008Z,940.89
2023-03-06T09:22:30.000Z,940.91
2023-03-06T09:23:29.965Z,940.94
2023-03-06T09:24:30.012Z,940.92
2023-03-06T09:25:29.926Z,940.97
2023-03-06T09:26:39.830Z,940.95
2023-03-06T09:27:30.447Z,940.97
2023-03-06T09:28:30.438Z,940.95
2023-03-06T09:29:30.415Z,940.97
2023-03-06T09:30:30.412Z,940.99
2023-03-06T09:31:30.376Z,940.97
2023-03-06T09:32:30.387Z,940.91
2023-03-06T09:33:30.339Z,940.91
2023-03-06T09:34:30.330Z,940.94
2023-03-06T09:35:30.338Z,940.96
2023-03-06T09:36:30.293Z,940.92
2023-03-06T09:37:30.275Z,940.94
2023-03-06T09:38:30.260Z,940.96
2023-03-06T09:39:30.236Z,940.96
2023-03-06T09:40:30.247Z,940.93
2023-03-06T09:41:30.199Z,941
2023-03-06T09:42:30.184Z,940.98
2023-03-06T09:43:30.163Z,941.01
2023-03-06T09:44:30.161Z,940.99
2023-03-06T09:45:30.129Z,941
2023-03-06T09:46:30.135Z,941.02
2023-03-06T09:47:30.096Z,940.99
2023-03-06T09:48:30.078Z,940.95
2023-03-06T09:49:30.060Z,940.98
2023-03-06T09:50:30.048Z,941.02
2023-03-06T09:51:30.028Z,941.02
2023-03-06T09:52:30.029Z,940.98
2023-03-06T09:53:29.987Z,941.01
2023-03-06T09:54:29.969Z,941
2023-03-06T09:55:29.952Z,940.99
2023-03-06T09:56:29.958Z,941.06
2023-03-06T09:57:29.918Z,940.97
2023-03-06T09:58:29.899Z,941.01
2023-03-06T09:59:29.881Z,941.04
2023-03-06T10:00:29.864Z,941.05
2023-03-06T10:01:29.848Z,941.01
2023-03-06T10:02:29.964Z,941.01
2023-03-06T10:03:29.868Z,941.03
2023-03-06T10:04:29.822Z,941.04
2023-03-06T10:05:29.778Z,941.03
2023-03-06T10:06:29.783Z,941.01
2023-03-06T10:07:29.746Z,941
2023-03-06T10:08:29.722Z,941.06
2023-03-06T10:09:29.706Z,941.05
2023-03-06T10:10:29.698Z,941.07
2023-03-06T10:11:29.671Z,941.05
2023-03-06T10:12:29.681Z,941.02
2023-03-06T10:13:29.636Z,941
2023-03-06T10:14:29.620Z,941.04
2023-03-06T10:15:29.655Z,940.99
2023-03-06T10:16:29.593Z,941.11
2023-03-06T10:17:29.566Z,940.99
2023-03-06T10:18:29.549Z,941
2023-03-06T10:19:29.535Z,941.03
2023-03-06T10:20:29.520Z,941
2023-03-06T10:21:30.333Z,940.99
2023-03-06T10:22:30.332Z,941
2023-03-06T10:23:30.299Z,940.98
2023-03-06T10:24:30.284Z,940.97
2023-03-06T10:25:30.265Z,940.93
2023-03-06T10:26:30.389Z,940.96
2023-03-06T10:27:30.243Z,940.97
2023-03-06T10:28:30.241Z,940.96
2023-03-06T10:29:30.196Z,940.92
2023-03-06T10:30:30.178Z,940.9
2023-03-06T10:31:30.242Z,940.9
2023-03-06T10:32:36.797Z,940.92
2023-03-06T10:33:30.136Z,940.9
2023-03-06T10:34:30.120Z,940.9
2023-03-06T10:35:30.852Z,940.87
2023-03-06T10:36:30.092Z,940.94
2023-03-06T10:37:31.595Z,940.88
2023-03-06T10:38:30.050Z,940.91
2023-03-06T10:39:30.027Z,940.86
2023-03-06T10:40:30.018Z,940.91
2023-03-06T10:41:30.018Z,940.88
2023-03-06T10:42:30.000Z,940.87
2023-03-06T10:43:29.960Z,940.86
2023-03-06T10:44:29.980Z,940.87
2023-03-06T10:45:37.788Z,940.81
2023-03-06T10:46:29.948Z,940.85
2023-03-06T10:47:29.897Z,940.84
2023-03-06T10:48:30.043Z,940.81
2023-03-06T10:49:29.918Z,940.78
2023-03-06T10:50:29.843Z,940.82
2023-03-06T10:51:29.837Z,940.81
2023-03-06T10:52:29.812Z,940.82
2023-03-06T10:53:29.794Z,940.8
2023-03-06T10:54:29.778Z,940.8
2023-03-06T10:55:29.762Z,940.84
2023-03-06T10:56:29.751Z,940.86
2023-03-06T10:57:30.160Z,940.88
2023-03-06T10:58:30.146Z,940.86
2023-03-06T10:59:30.122Z,940.86
2023-03-06T11:00:30.159Z,940.88
2023-03-06T11:01:30.109Z,940.84
2023-03-06T11:02:30.073Z,940.87
2023-03-06T11:03:30.053Z,940.84
2023-03-06T11:04:30.088Z,940.87
2023-03-06T11:05:30.018Z,940.84
2023-03-06T11:06:30.001Z,940.87
2023-03-06T11:07:29.982Z,940.86
2023-03-06T11:08:29.969Z,940.86
2023-03-06T11:09:29.949Z,940.82
2023-03-06T11:10:29.938Z,940.82
2023-03-06T11:11:37.349Z,940.83
2023-03-06T11:12:29.901Z,940.82
2023-03-06T11:13:29.877Z,940.86
2023-03-06T11:14:29.865Z,940.82
2023-03-06T11:15:29.904Z,940.84
2023-03-06T11:16:29.907Z,940.92
2023-03-06T11:17:29.817Z,940.92
2023-03-06T11:18:29.793Z,940.91
2023-03-06T11:19:29.793Z,940.89
2023-03-06T11:20:38.381Z,940.88
2023-03-06T11:21:31.344Z,940.86
2023-03-06T11:22:29.723Z,940.91
2023-03-06T11:23:29.705Z,940.88
2023-03-06T11:24:29.686Z,940.89
2023-03-06T11:25:29.667Z,940.89
2023-03-06T11:26:29.651Z,940.86
2023-03-06T11:27:29.632Z,940.87
2023-03-06T11:28:29.631Z,940.86
2023-03-06T11:29:29.868Z,940.89
2023-03-06T11:30:29.579Z,940.91
2023-03-06T11:31:29.588Z,940.88
2023-03-06T11:32:29.701Z,940.82
2023-03-06T11:33:29.526Z,940.87
2023-03-06T11:34:29.509Z,940.84
2023-03-06T11:35:29.502Z,940.83
2023-03-06T11:36:29.496Z,940.77
2023-03-06T11:37:29.459Z,940.76
2023-03-06T11:38:29.440Z,940.78
2023-03-06T11:39:29.421Z,940.72
2023-03-06T11:40:29.402Z,940.74
2023-03-06T11:41:29.386Z,940.78
2023-03-06T11:42:29.370Z,940.7
2023-03-06T11:43:29.351Z,940.69
2023-03-06T11:44:29.334Z,940.67
2023-03-06T11:45:29.319Z,940.7
2023-03-06T11:46:29.367Z,940.73
2023-03-06T11:47:29.282Z,940.66
2023-03-06T11:48:29.292Z,940.63
2023-03-06T11:49:29.251Z,940.64
2023-03-06T11:50:29.233Z,940.59
2023-03-06T11:51:29.216Z,940.63
2023-03-06T11:52:29.200Z,940.6
2023-03-06T11:53:29.181Z,940.59
2023-03-06T11:54:29.166Z,940.6
2023-03-06T11:55:29.148Z,940.62
2023-03-06T11:56:31.426Z,940.59
2023-03-06T11:57:29.116Z,940.57
2023-03-06T11:58:29.108Z,940.61
2023-03-06T11:59:29.084Z,940.54
2023-03-06T12:00:29.068Z,940.58
2023-03-06T12:01:29.060Z,940.58
2023-03-06T12:02:29.120Z,940.51
2023-03-06T12:03:29.019Z,940.52
2023-03-06T12:04:29.040Z,940.52
2023-03-06T12:05:29.048Z,940.51
2023-03-06T12:06:28.969Z,940.56
2023-03-06T12:07:28.955Z,940.46
2023-03-06T12:08:28.937Z,940.5
2023-03-06T12:09:28.925Z,940.45
2023-03-06T12:10:28.905Z,940.44
2023-03-06T12:11:29.694Z,940.46
2023-03-06T12:12:28.871Z,940.48
2023-03-06T12:13:28.875Z,940.44
2023-03-06T12:14:28.840Z,940.37
2023-03-06T12:15:28.828Z,940.32
2023-03-06T12:16:28.855Z,940.39
2023-03-06T12:17:28.794Z,940.37
2023-03-06T12:18:28.792Z,940.37
2023-03-06T12:19:28.761Z,940.34
2023-03-06T12:20:28.784Z,940.31
2023-03-06T12:21:28.729Z,940.31
2023-03-06T12:22:31.027Z,940.36
2023-03-06T12:23:28.697Z,940.32
2023-03-06T12:24:28.683Z,940.3
2023-03-06T12:25:28.679Z,940.28
2023-03-06T12:26:28.651Z,940.33
2023-03-06T12:27:28.633Z,940.3
2023-03-06T12:28:28.620Z,940.32
2023-03-06T12:29:28.602Z,940.32
2023-03-06T12:30:28.595Z,940.28
2023-03-06T12:31:28.605Z,940.26
2023-03-06T12:32:28.578Z,940.32
2023-03-06T12:33:28.564Z,940.28
2023-03-06T12:34:28.525Z,940.21
2023-03-06T12:35:28.615Z,940.26
2023-03-06T12:36:28.554Z,940.24
2023-03-06T12:37:28.474Z,940.14
2023-03-06T12:38:28.462Z,940.16
2023-03-06T12:39:28.461Z,940.12
2023-03-06T12:40:28.426Z,940.11
2023-03-06T12:41:28.422Z,940.15
2023-03-06T12:42:28.394Z,940.15
2023-03-06T12:43:28.381Z,940.13
2023-03-06T12:44:28.467Z,940.17
2023-03-06T12:45:28.344Z,940.17
2023-03-06T12:46:28.336Z,940.14
2023-03-06T12:47:28.315Z,940.18
2023-03-06T12:48:28.298Z,940.18